Time;durP1;ratioP1;P1;durP2;ratioP2;P2;SDS_P1;SDS_P2;PMS_P1;PMS_P2;Temp;Humidity;BMP_temperature;BMP_pressure;BME280_temperature;BME280_humidity;BME280_pressure;Samples;Min_cycle;Max_cycle;Signal;HPM_P1;HPM_P2
2021/06/20 00:00:39;;;;;;;17.07;15.47;;;25.50;85.70;;;25.66;79.67;97469.13;5044084;28;20628;-65
2021/06/20 00:03:08;;;;;;;14.13;12.80;;;25.40;86.70;;;25.62;78.06;97480.41;5047087;28;20652;-64
2021/06/20 00:05:52;;;;;;;13.70;12.40;;;25.40;84.50;;;25.69;75.26;97470.53;5030878;28;20697;-64
2021/06/20 00:08:22;;;;;;;12.43;11.43;;;25.40;81.50;;;25.81;72.76;97474.16;5045542;28;20622;-65
2021/06/20 00:10:52;;;;;;;13.73;12.30;;;25.50;78.40;;;25.92;72.40;97465.44;5045551;28;20641;-64
2021/06/20 00:13:21;;;;;;;12.80;11.60;;;25.60;76.90;;;26.03;72.10;97472.81;5043971;28;20641;-65
2021/06/20 00:15:51;;;;;;;13.27;12.07;;;25.70;76.80;;;26.08;72.50;97484.47;5045232;28;20637;-64
2021/06/20 00:18:20;;;;;;;11.63;10.43;;;25.70;76.60;;;26.14;70.77;97473.72;5040584;28;20647;-65
2021/06/20 00:20:50;;;;;;;13.67;12.27;;;25.80;74.20;;;26.20;70.54;97472.06;5041952;28;20637;-65
2021/06/20 00:23:19;;;;;;;12.50;11.40;;;25.80;74.30;;;26.19;69.29;97462.38;5044908;28;21261;-65
2021/06/20 00:25:47;;;;;;;12.83;11.63;;;25.90;72.30;;;26.23;69.35;97468.94;5042763;28;20702;-64
2021/06/20 00:28:16;;;;;;;13.87;12.17;;;25.90;71.60;;;26.36;68.04;97463.53;5038048;28;20725;-65
2021/06/20 00:30:45;;;;;;;12.63;11.53;;;26.00;70.30;;;26.44;67.00;97457.91;5043454;28;20680;-64
2021/06/20 00:33:13;;;;;;;12.53;11.30;;;26.10;68.80;;;26.55;66.80;97462.53;5046067;28;20645;-64
2021/06/20 00:35:42;;;;;;;12.67;11.57;;;26.20;68.10;;;26.61;66.65;97459.81;5044563;28;20659;-65
2021/06/20 00:38:12;;;;;;;11.30;10.20;;;26.20;67.70;;;26.67;65.55;97459.75;5046812;28;20687;-65
2021/06/20 00:40:41;;;;;;;11.60;10.50;;;26.30;66.80;;;26.72;65.84;97449.22;5046937;28;20713;-65
2021/06/20 00:43:09;;;;;;;10.90;9.90;;;26.40;66.70;;;26.76;65.33;97457.59;5044454;28;20647;-64
2021/06/20 00:45:38;;;;;;;12.00;10.90;;;26.40;66.30;;;26.81;65.35;97471.19;5050272;28;21038;-65
2021/06/20 00:48:08;;;;;;;11.37;10.27;;;26.50;66.20;;;26.83;66.00;97467.22;5049693;28;21238;-65
2021/06/20 00:50:37;;;;;;;11.70;10.60;;;26.50;66.10;;;26.86;65.39;97471.31;5046961;28;22617;-65
2021/06/20 00:53:06;;;;;;;12.50;11.40;;;26.50;65.80;;;26.89;66.17;97484.31;5044906;28;20640;-64
2021/06/20 00:55:38;;;;;;;13.80;12.50;;;26.60;66.90;;;26.84;69.20;97487.59;5050163;28;20649;-64
2021/06/20 00:58:09;;;;;;;14.77;13.27;;;26.60;70.00;;;26.71;72.17;97500.28;5046565;28;20704;-64
2021/06/20 01:00:37;;;;;;;14.97;13.60;;;26.50;73.80;;;26.57;73.04;97509.47;5045955;28;21169;-64
2021/06/20 01:03:07;;;;;;;16.60;15.10;;;26.40;75.60;;;26.43;74.27;97523.16;5049177;28;20637;-65
2021/06/20 01:05:36;;;;;;;15.03;13.70;;;26.30;77.50;;;26.26;75.01;97516.66;5043606;28;20676;-64
2021/06/20 01:08:06;;;;;;;14.57;13.03;;;26.20;78.40;;;26.16;75.33;97509.13;5043343;28;21005;-64
2021/06/20 01:10:36;;;;;;;14.77;13.30;;;26.00;78.80;;;26.10;75.06;97523.34;5049913;28;20636;-64
2021/06/20 01:13:07;;;;;;;14.83;13.67;;;26.00;78.80;;;26.09;75.09;97520.91;5049506;28;20651;-64
2021/06/20 01:15:37;;;;;;;16.30;14.60;;;25.90;79.10;;;26.01;76.32;97518.47;5045337;28;20734;-65
2021/06/20 01:18:08;;;;;;;15.33;13.97;;;25.90;80.70;;;25.95;76.35;97511.31;5051231;28;20653;-65
2021/06/20 01:20:36;;;;;;;15.60;14.10;;;25.80;80.90;;;25.88;76.75;97521.22;5046989;28;20696;-65
2021/06/20 01:23:07;;;;;;;15.47;14.17;;;25.70;81.40;;;25.82;76.20;97527.41;5047657;28;20690;-65
2021/06/20 01:25:38;;;;;;;15.33;14.00;;;25.60;81.40;;;25.77;76.69;97519.22;5047381;28;21257;-65
2021/06/20 01:28:10;;;;;;;16.03;14.43;;;25.60;82.10;;;25.75;76.89;97526.59;5048807;28;20665;-64
2021/06/20 01:30:44;;;;;;;16.13;14.37;;;25.50;82.30;;;25.73;77.31;97525.19;5047039;28;20637;-65
2021/06/20 01:33:15;;;;;;;16.80;15.20;;;25.50;82.90;;;25.67;77.03;97524.19;5044344;28;20638;-65
2021/06/20 01:35:45;;;;;;;16.20;14.50;;;25.50;82.80;;;25.63;77.96;97530.13;5044045;28;21386;-65
2021/06/20 01:38:15;;;;;;;15.10;13.60;;;25.40;83.20;;;25.61;75.40;97526.84;5042698;28;20706;-64
2021/06/20 01:40:44;;;;;;;15.70;14.10;;;25.40;81.20;;;25.65;75.36;97541.47;5044588;28;20990;-64
2021/06/20 01:43:13;;;;;;;13.73;12.33;;;25.40;80.80;;;25.66;75.30;97549.28;5046818;28;20635;-64
2021/06/20 01:45:43;;;;;;;15.43;13.83;;;25.40;79.90;;;25.68;73.96;97549.06;5043353;28;20633;-64
2021/06/20 01:48:12;;;;;;;13.80;12.70;;;25.40;78.60;;;25.73;73.75;97555.41;5047752;28;20662;-64
2021/06/20 01:50:41;;;;;;;13.50;12.40;;;25.50;78.20;;;25.74;73.68;97548.19;5045994;28;20640;-64
2021/06/20 01:53:12;;;;;;;14.03;12.57;;;25.50;78.20;;;25.74;73.98;97564.25;5046350;28;20657;-64
2021/06/20 01:55:45;;;;;;;14.30;13.10;;;25.50;78.60;;;25.71;74.73;97568.19;5048354;28;20678;-64
2021/06/20 01:58:15;;;;;;;14.97;13.60;;;25.50;79.20;;;25.68;75.22;97573.94;5048083;28;20634;-64
2021/06/20 02:00:46;;;;;;;15.07;13.77;;;25.50;79.40;;;25.62;74.81;97574.75;5047291;28;20662;-64
2021/06/20 02:03:18;;;;;;;15.00;13.60;;;25.40;79.50;;;25.61;75.79;97572.28;5044529;28;20632;-65
2021/06/20 02:05:47;;;;;;;15.37;13.70;;;25.40;80.70;;;25.58;76.18;97566.56;5047481;28;21124;-64
2021/06/20 02:08:19;;;;;;;15.43;13.80;;;25.40;81.20;;;25.52;76.66;97578.88;5041554;28;20689;-64
2021/06/20 02:10:50;;;;;;;14.90;13.63;;;25.30;81.90;;;25.46;77.65;97578.91;5046566;28;20638;-64
2021/06/20 02:13:22;;;;;;;15.10;13.70;;;25.30;82.80;;;25.39;78.13;97572.75;5044190;28;20632;-64
2021/06/20 02:15:52;;;;;;;16.10;14.57;;;25.20;83.60;;;25.34;78.49;97583.25;5045698;28;21251;-65
2021/06/20 02:18:20;;;;;;;14.80;13.47;;;25.20;84.00;;;25.30;78.31;97571.34;5046561;28;20630;-64
2021/06/20 02:20:49;;;;;;;16.27;14.77;;;25.10;84.30;;;25.25;78.78;97569.28;5042484;28;20710;-64
2021/06/20 02:23:18;;;;;;;15.50;14.10;;;25.10;85.00;;;25.20;78.56;97560.28;5045620;28;21277;-64
2021/06/20 02:25:47;;;;;;;15.43;14.23;;;25.00;85.10;;;25.16;79.02;97567.84;5049031;28;20650;-64
2021/06/20 02:28:17;;;;;;;15.97;14.47;;;25.00;85.80;;;25.13;79.16;97573.63;5048777;28;21242;-64
2021/06/20 02:30:47;;;;;;;16.93;15.40;;;24.90;85.80;;;25.09;79.04;97579.56;5044205;28;20715;-64
2021/06/20 02:33:15;;;;;;;16.30;14.70;;;24.90;86.00;;;25.08;79.19;97585.13;5046889;28;20672;-64
2021/06/20 02:35:44;;;;;;;15.60;14.20;;;24.90;86.60;;;25.06;79.80;97595.19;5046013;28;20746;-65
2021/06/20 02:38:13;;;;;;;16.60;14.87;;;24.90;86.90;;;25.00;80.27;97596.84;5047058;28;20679;-64
2021/06/20 02:40:41;;;;;;;16.27;14.77;;;24.80;87.10;;;24.96;79.51;97608.09;5043103;28;22917;-64
2021/06/20 02:43:10;;;;;;;16.63;14.90;;;24.80;87.30;;;24.90;79.60;97624.97;5048146;28;20646;-64
2021/06/20 02:45:40;;;;;;;17.00;15.50;;;24.80;87.70;;;24.85;80.99;97630.91;5047397;28;20640;-64
2021/06/20 02:48:09;;;;;;;16.73;14.43;;;24.70;88.00;;;24.83;80.28;97632.13;5047436;28;20655;-64
2021/06/20 02:50:37;;;;;;;17.57;15.83;;;24.70;88.40;;;24.80;80.37;97648.56;5041570;28;20690;-64
2021/06/20 02:53:06;;;;;;;16.63;14.73;;;24.60;88.60;;;24.79;80.82;97657.56;5046643;28;20667;-64
2021/06/20 02:55:35;;;;;;;16.80;13.63;;;24.60;88.10;;;24.81;79.59;97650.22;5045218;28;20692;-64
2021/06/20 02:58:03;;;;;;;17.57;14.00;;;24.60;87.60;;;24.85;78.98;97657.59;5045835;28;20665;-64
2021/06/20 03:00:32;;;;;;;19.17;13.30;;;24.70;87.10;;;24.84;78.94;97655.13;5045562;28;20706;-65
2021/06/20 03:03:02;;;;;;;14.33;12.70;;;24.60;86.80;;;24.87;78.80;97660.06;5041274;28;20648;-64
2021/06/20 03:05:31;;;;;;;21.60;14.00;;;24.60;86.50;;;24.93;78.30;97660.06;5045424;28;20645;-64
2021/06/20 03:07:59;;;;;;;18.23;15.23;;;24.70;86.20;;;24.90;79.47;97662.34;5046474;28;20648;-64
2021/06/20 03:10:28;;;;;;;14.63;12.90;;;24.60;86.70;;;24.86;79.13;97666.41;5043746;28;20632;-64
2021/06/20 03:12:56;;;;;;;17.97;15.23;;;24.60;86.90;;;24.87;79.70;97682.22;5047239;28;20641;-65
2021/06/20 03:15:25;;;;;;;15.50;13.87;;;24.60;88.20;;;24.85;81.67;97686.13;5041184;28;20659;-64
2021/06/20 03:17:54;;;;;;;16.30;14.80;;;24.60;89.40;;;24.80;80.95;97688.59;5038321;28;21238;-65
2021/06/20 03:20:24;;;;;;;15.90;14.40;;;24.60;89.80;;;24.80;82.10;97688.59;5045111;28;20633;-64
2021/06/20 03:22:52;;;;;;;16.07;14.37;;;24.60;90.10;;;24.78;82.03;97686.13;5046467;28;21126;-64
2021/06/20 03:25:21;;;;;;;17.17;15.10;;;24.60;90.00;;;24.82;81.57;97690.03;5041585;28;20624;-64
2021/06/20 03:27:51;;;;;;;14.83;13.23;;;24.60;89.80;;;24.89;80.51;97679.38;5043488;28;20660;-64
2021/06/20 03:30:21;;;;;;;16.27;12.80;;;24.70;89.70;;;24.95;80.28;97681.22;5042047;28;20970;-65
2021/06/20 03:32:49;;;;;;;26.20;11.90;;;24.70;88.90;;;25.02;80.43;97679.38;5038856;28;21263;-64
2021/06/20 03:35:18;;;;;;;19.80;11.80;;;24.70;88.70;;;25.08;79.52;97689.25;5043217;28;20638;-64
2021/06/20 03:37:49;;;;;;;19.90;12.40;;;24.80;88.40;;;25.14;79.70;97689.28;5047911;28;20731;-65
2021/06/20 03:40:18;;;;;;;17.90;12.80;;;24.80;88.10;;;25.19;79.45;97698.31;5046705;28;20711;-65
2021/06/20 03:42:47;;;;;;;19.13;12.40;;;24.90;88.00;;;25.21;79.02;97690.94;5047816;28;20651;-65
2021/06/20 03:45:16;;;;;;;20.97;12.30;;;24.90;87.40;;;25.26;79.19;97695.66;5043488;28;20640;-64
2021/06/20 03:47:45;;;;;;;18.40;11.80;;;25.00;88.20;;;25.27;80.05;97700.78;5044424;28;20633;-65
2021/06/20 03:50:14;;;;;;;16.93;12.40;;;25.10;87.90;;;25.26;79.61;97707.16;5044721;28;20660;-64
2021/06/20 03:52:43;;;;;;;20.90;12.23;;;25.10;87.80;;;25.26;80.39;97711.69;5042467;28;20645;-64
2021/06/20 03:55:13;;;;;;;21.40;13.00;;;25.00;88.70;;;25.26;79.44;97707.16;5045182;28;20642;-65
2021/06/20 03:57:42;;;;;;;19.23;13.20;;;25.10;87.40;;;25.29;79.31;97706.75;5040553;28;20976;-65
2021/06/20 04:00:14;;;;;;;18.70;12.00;;;25.10;87.20;;;25.31;79.29;97691.31;5045785;28;21195;-64
2021/06/20 04:02:43;;;;;;;17.50;12.27;;;25.10;86.50;;;25.33;78.74;97691.97;5043481;28;20962;-64
2021/06/20 04:05:14;;;;;;;20.67;11.87;;;25.10;86.10;;;25.31;79.54;97701.19;5048652;28;20674;-64
2021/06/20 04:07:44;;;;;;;20.60;12.10;;;25.10;87.30;;;25.26;80.75;97712.50;5048427;28;20677;-64
2021/06/20 04:10:14;;;;;;;24.07;13.20;;;25.10;89.00;;;25.25;80.82;97713.50;5046679;28;20670;-65
2021/06/20 04:12:43;;;;;;;22.17;12.57;;;25.10;89.40;;;25.28;81.13;97706.94;5051957;28;20715;-64
2021/06/20 04:15:13;;;;;;;27.10;12.70;;;25.10;90.00;;;25.28;81.64;97709.63;5051312;28;21163;-65
2021/06/20 04:17:42;;;;;;;18.27;10.60;;;25.10;90.10;;;25.29;80.24;97713.94;5047619;28;20634;-64
2021/06/20 04:20:13;;;;;;;18.17;10.97;;;25.10;89.80;;;25.34;81.30;97711.47;5045659;28;21015;-65
2021/06/20 04:22:42;;;;;;;28.37;13.10;;;25.10;90.00;;;25.36;82.17;97707.56;5047664;28;20640;-65
2021/06/20 04:25:14;;;;;;;15.50;10.77;;;25.10;90.50;;;25.38;81.71;97692.16;5051421;28;20691;-64
2021/06/20 04:27:47;;;;;;;24.60;13.03;;;25.10;90.10;;;25.39;81.57;97692.97;5046360;28;21272;-64
2021/06/20 04:30:18;;;;;;;18.20;11.30;;;25.10;90.20;;;25.38;80.97;97692.16;5047834;28;20990;-64
2021/06/20 04:32:49;;;;;;;23.47;12.10;;;25.10;90.00;;;25.41;80.71;97683.72;5047809;28;20648;-65
2021/06/20 04:35:19;;;;;;;19.27;11.37;;;25.20;89.90;;;25.43;80.79;97680.84;5043775;28;20652;-64
2021/06/20 04:37:50;;;;;;;23.63;12.87;;;25.20;89.70;;;25.45;81.27;97687.63;5045797;28;20647;-64
2021/06/20 04:40:21;;;;;;;16.60;12.10;;;25.20;89.80;;;25.47;82.94;97685.59;5048694;28;20632;-65
2021/06/20 04:42:57;;;;;;;21.00;12.43;;;25.20;90.90;;;25.45;82.23;97692.16;5048753;28;21278;-65
2021/06/20 04:45:26;;;;;;;27.00;12.77;;;25.20;90.70;;;25.47;81.54;97698.94;5050795;28;20624;-65
2021/06/20 04:47:56;;;;;;;18.90;11.43;;;25.20;90.40;;;25.53;81.82;97698.13;5045770;28;20642;-65
2021/06/20 04:50:25;;;;;;;15.40;10.80;;;25.30;90.40;;;25.59;81.22;97697.28;5046775;28;20638;-64
2021/06/20 04:52:53;;;;;;;22.13;13.07;;;25.30;90.30;;;25.61;83.02;97697.88;5044797;28;20641;-64
2021/06/20 04:55:24;;;;;;;23.67;13.00;;;25.40;91.20;;;25.62;82.53;97699.53;5044397;28;20634;-65
2021/06/20 04:57:52;;;;;;;20.10;12.33;;;25.40;90.90;;;25.63;81.84;97682.47;5051454;28;20640;-65
2021/06/20 05:00:22;;;;;;;18.97;11.53;;;25.40;90.60;;;25.62;82.38;97680.84;5044245;28;20645;-64
2021/06/20 05:02:51;;;;;;;23.53;11.50;;;25.40;90.70;;;25.58;81.96;97682.28;5044974;28;20641;-65
2021/06/20 05:05:19;;;;;;;20.97;11.83;;;25.40;90.60;;;25.54;82.09;97691.72;5054507;28;20672;-65
2021/06/20 05:07:49;;;;;;;21.83;11.93;;;25.40;90.50;;;25.54;81.28;97690.91;5067491;28;21046;-65
2021/06/20 05:10:17;;;;;;;26.00;11.40;;;25.30;90.30;;;25.60;81.63;97694.41;5046293;28;20667;-65
2021/06/20 05:12:47;;;;;;;24.73;11.23;;;25.40;90.30;;;25.71;81.60;97698.34;5046954;28;20634;-64
2021/06/20 05:15:17;;;;;;;26.27;12.50;;;25.50;90.40;;;25.86;82.00;97701.56;5045417;28;21667;-64
2021/06/20 05:17:46;;;;;;;24.17;11.67;;;25.50;90.80;;;25.97;82.51;97707.09;5046101;28;20671;-64
2021/06/20 05:20:15;;;;;;;34.73;12.70;;;25.70;91.20;;;26.08;82.42;97718.00;5047050;28;20646;-64
2021/06/20 05:22:44;;;;;;;27.30;11.13;;;25.80;91.20;;;26.22;81.89;97716.91;5045021;28;20633;-64
2021/06/20 05:25:13;;;;;;;24.60;12.50;;;25.90;91.00;;;26.32;81.08;97717.31;5042694;28;20628;-65
2021/06/20 05:27:43;;;;;;;27.40;13.07;;;26.00;90.60;;;26.37;80.87;97716.66;5048512;28;20642;-65
2021/06/20 05:30:16;;;;;;;21.63;11.37;;;26.00;90.40;;;26.40;81.93;97727.78;5049253;28;20666;-65
2021/06/20 05:32:44;;;;;;;16.90;11.30;;;26.10;90.80;;;26.40;81.07;97733.16;5049288;28;21047;-65
2021/06/20 05:35:13;;;;;;;19.37;11.43;;;26.10;90.40;;;26.44;80.41;97739.69;5045877;28;20709;-65
2021/06/20 05:37:43;;;;;;;20.80;10.83;;;26.20;90.20;;;26.44;82.11;97739.69;5049850;28;20731;-65
2021/06/20 05:40:13;;;;;;;18.03;11.00;;;26.20;90.70;;;26.42;82.31;97749.00;5042063;28;20645;-65
2021/06/20 05:42:43;;;;;;;16.50;11.53;;;26.20;90.90;;;26.39;81.44;97747.56;5045537;28;20644;-65
2021/06/20 05:45:14;;;;;;;22.90;12.10;;;26.20;90.60;;;26.37;81.43;97749.63;5045547;28;20696;-65
2021/06/20 05:47:43;;;;;;;20.97;11.80;;;26.10;90.40;;;26.35;81.27;97734.81;5043661;28;21199;-65
2021/06/20 05:50:12;;;;;;;22.80;12.27;;;26.10;90.30;;;26.35;81.23;97732.94;5049038;28;20666;-65
2021/06/20 05:52:41;;;;;;;18.57;11.17;;;26.10;90.40;;;26.47;81.27;97730.44;5046830;28;20632;-65
2021/06/20 05:55:10;;;;;;;22.17;12.80;;;26.10;90.50;;;26.63;81.59;97738.81;5044664;28;20632;-65
2021/06/20 05:57:39;;;;;;;20.17;13.10;;;26.30;90.80;;;26.83;81.91;97759.09;5046763;28;20644;-65
2021/06/20 06:00:10;;;;;;;19.47;10.93;;;26.40;91.10;;;27.10;81.97;97758.75;5047001;28;20649;-65
2021/06/20 06:02:44;;;;;;;21.37;12.37;;;26.70;91.30;;;27.22;79.13;97745.50;5046159;28;20642;-65
2021/06/20 06:05:13;;;;;;;18.13;11.20;;;26.80;89.80;;;27.20;79.35;97748.41;5045922;28;20698;-65
2021/06/20 06:07:44;;;;;;;24.00;10.60;;;26.80;88.60;;;27.16;77.61;97722.25;5046104;28;21243;-65
2021/06/20 06:10:25;;;;;;;20.60;9.53;;;26.80;87.30;;;27.10;77.28;97740.00;5045942;28;20657;-65
2021/06/20 06:12:54;;;;;;;13.90;8.43;;;26.80;86.00;;;27.06;76.65;97728.09;5043754;28;20643;-65
2021/06/20 06:15:24;;;;;;;21.40;8.67;;;26.80;84.20;;;27.06;75.67;97744.16;5042439;28;21015;-65
2021/06/20 06:17:54;;;;;;;18.57;7.93;;;26.80;83.20;;;27.10;75.66;97747.22;5044443;28;21034;-65
2021/06/20 06:20:23;;;;;;;19.90;8.30;;;26.80;83.60;;;27.08;74.34;97744.75;5042399;28;20633;-65
2021/06/20 06:22:52;;;;;;;20.27;8.10;;;26.80;81.20;;;27.13;73.38;97750.28;5045693;28;20640;-65
2021/06/20 06:25:21;;;;;;;23.20;7.67;;;26.80;80.40;;;27.25;73.22;97740.53;5047110;28;20697;-65
2021/06/20 06:27:51;;;;;;;14.33;8.50;;;26.90;80.10;;;27.65;73.11;97744.59;5047129;28;21214;-65
2021/06/20 06:30:21;;;;;;;17.33;7.37;;;27.10;79.70;;;28.13;71.70;97744.56;5044004;28;20746;-65
2021/06/20 06:32:50;;;;;;;16.23;7.60;;;27.50;77.90;;;28.49;71.50;97747.22;5047654;28;21035;-65
2021/06/20 06:35:20;;;;;;;14.60;8.40;;;27.90;77.80;;;29.06;71.76;97767.19;5047161;28;20734;-65
2021/06/20 06:37:51;;;;;;;14.43;6.67;;;28.40;79.90;;;29.55;67.78;97761.50;5048729;28;20640;-65
2021/06/20 06:40:20;;;;;;;13.50;7.40;;;28.80;73.20;;;29.90;69.09;97770.47;5045422;28;20632;-65
2021/06/20 06:42:48;;;;;;;14.93;6.43;;;29.20;74.90;;;29.94;67.91;97777.03;5040513;28;20637;-65
2021/06/20 06:45:17;;;;;;;12.40;6.20;;;29.40;72.80;;;29.74;66.23;97779.19;5044909;28;21047;-65
2021/06/20 06:47:47;;;;;;;15.17;6.30;;;29.40;69.30;;;29.49;66.08;97789.31;5044782;28;20646;-65
2021/06/20 06:50:17;;;;;;;10.90;5.50;;;29.10;68.00;;;29.55;66.63;97789.22;5046286;28;20768;-65
2021/06/20 06:52:48;;;;;;;12.27;5.90;;;29.10;69.30;;;29.62;66.56;97799.91;5043641;28;20655;-65
2021/06/20 06:55:17;;;;;;;15.87;5.83;;;29.20;68.70;;;29.65;64.89;97811.00;5045354;28;20639;-65
2021/06/20 06:57:47;;;;;;;9.80;5.53;;;29.20;66.80;;;29.76;65.41;97806.69;5045290;28;20644;-65
2021/06/20 07:00:17;;;;;;;12.20;6.20;;;29.20;67.70;;;29.84;66.31;97815.28;5044067;28;21184;-65
2021/06/20 07:02:46;;;;;;;12.43;5.17;;;29.40;68.60;;;29.95;65.79;97822.56;5048634;28;20647;-65
2021/06/20 07:05:15;;;;;;;12.00;5.60;;;29.50;68.10;;;29.81;65.52;97815.72;5045699;28;20726;-65
2021/06/20 07:07:44;;;;;;;10.50;5.13;;;29.40;66.90;;;29.62;65.41;97805.28;5043842;28;20667;-65
2021/06/20 07:10:14;;;;;;;10.70;5.03;;;29.30;66.50;;;29.37;65.05;97817.25;5048338;28;20652;-65
2021/06/20 07:12:43;;;;;;;14.00;4.93;;;29.10;65.00;;;29.20;65.67;97817.03;5046995;28;21273;-65
2021/06/20 07:15:14;;;;;;;9.27;5.10;;;28.90;66.00;;;29.09;65.42;97809.72;5048263;28;20637;-65
2021/06/20 07:17:43;;;;;;;9.20;5.03;;;28.80;66.20;;;28.98;64.95;97816.91;5046569;28;21167;-65
2021/06/20 07:20:16;;;;;;;10.93;5.30;;;28.70;65.20;;;28.90;64.65;97823.41;5047370;28;20644;-65
2021/06/20 07:22:47;;;;;;;8.20;5.20;;;28.60;65.90;;;28.76;64.13;97810.34;5049623;28;20648;-66
2021/06/20 07:25:21;;;;;;;10.37;5.20;;;28.40;64.60;;;28.61;65.89;97807.19;5045881;28;20621;-63
2021/06/20 07:27:52;;;;;;;9.50;5.10;;;28.30;67.10;;;28.49;65.59;97800.91;5042768;28;20663;-65
2021/06/20 07:30:23;;;;;;;9.83;5.73;;;28.10;66.10;;;28.44;69.07;97798.09;5046484;28;20756;-65
2021/06/20 07:32:51;;;;;;;9.50;4.60;;;28.10;70.10;;;28.41;66.45;97793.16;5047687;28;20698;-65
2021/06/20 07:35:20;;;;;;;10.60;5.30;;;28.10;68.30;;;28.33;67.32;97796.16;5043987;28;21265;-65
2021/06/20 07:37:49;;;;;;;10.73;4.70;;;28.10;68.20;;;28.22;66.85;97793.38;5040251;28;20641;-65
2021/06/20 07:40:21;;;;;;;9.50;5.63;;;28.00;67.40;;;28.17;67.31;97791.34;5043237;28;21177;-65
2021/06/20 07:42:50;;;;;;;17.23;6.40;;;27.90;69.00;;;28.17;68.27;97798.59;5023711;28;20640;-64
2021/06/20 07:45:19;;;;;;;11.90;5.60;;;27.90;70.70;;;28.15;66.95;97798.81;5048727;28;20704;-64
2021/06/20 07:47:49;;;;;;;14.90;5.83;;;27.90;68.70;;;28.17;67.85;97799.41;5047960;28;20739;-64
2021/06/20 07:50:18;;;;;;;7.50;5.20;;;27.90;69.90;;;28.13;66.13;97794.69;5041809;28;20656;-64
2021/06/20 07:52:47;;;;;;;10.63;5.90;;;27.80;68.00;;;28.03;65.13;97808.59;5045018;28;20657;-64
2021/06/20 07:55:16;;;;;;;9.20;5.13;;;27.70;66.30;;;28.02;66.04;97798.91;5046236;28;20694;-64
2021/06/20 07:57:46;;;;;;;6.30;4.60;;;27.70;66.40;;;28.04;67.17;97796.81;5046718;28;21233;-64
2021/06/20 08:00:17;;;;;;;7.57;4.43;;;27.70;68.20;;;28.02;67.25;97800.75;5046526;28;20672;-64
2021/06/20 08:02:46;;;;;;;15.17;5.50;;;27.70;68.30;;;27.97;67.91;97794.44;5046796;28;20639;-64
2021/06/20 08:05:16;;;;;;;9.50;5.00;;;27.70;68.40;;;27.90;68.49;97791.78;5046901;28;21054;-65
2021/06/20 08:07:45;;;;;;;7.80;4.67;;;27.60;69.30;;;27.81;67.81;97786.94;5046713;28;20661;-63
2021/06/20 08:10:15;;;;;;;7.33;5.10;;;27.50;69.30;;;27.76;69.49;97795.63;5050833;28;20661;-64
2021/06/20 08:12:44;;;;;;;11.40;5.33;;;27.50;70.50;;;27.77;69.28;97797.28;5046637;28;20626;-64
2021/06/20 08:15:14;;;;;;;10.50;4.33;;;27.50;71.80;;;27.77;68.51;97783.03;5050799;28;20644;-65
2021/06/20 08:17:44;;;;;;;10.30;4.80;;;27.50;70.70;;;27.64;66.85;97777.78;5041993;28;20989;-67
2021/06/20 08:20:15;;;;;;;6.80;4.50;;;27.40;68.50;;;27.52;68.09;97770.69;5044876;28;20733;-65
2021/06/20 08:22:44;;;;;;;7.47;5.10;;;27.20;69.70;;;27.42;68.00;97754.22;5043046;28;20645;-65
2021/06/20 08:25:14;;;;;;;8.80;5.10;;;27.10;69.90;;;27.35;68.29;97738.19;5049379;28;20632;-65
2021/06/20 08:27:44;;;;;;;7.40;5.27;;;27.10;70.50;;;27.23;69.56;97737.25;5046446;28;20634;-65
2021/06/20 08:30:16;;;;;;;9.03;4.73;;;27.00;70.90;;;27.14;69.11;97733.19;5064410;28;21433;-65
2021/06/20 08:32:45;;;;;;;8.37;4.43;;;26.90;71.10;;;27.13;69.94;97730.72;5046873;28;20670;-65
2021/06/20 08:35:17;;;;;;;8.90;4.80;;;26.90;71.70;;;27.11;69.71;97728.25;5044881;28;20647;-65
2021/06/20 08:37:46;;;;;;;10.47;4.40;;;26.90;71.40;;;27.14;71.56;97727.81;5060054;28;21053;-65
2021/06/20 08:40:16;;;;;;;10.07;4.70;;;26.80;73.90;;;27.21;70.08;97722.41;5050496;28;20655;-65
2021/06/20 08:42:45;;;;;;;9.70;4.40;;;26.90;72.80;;;27.25;69.24;97720.94;5047212;28;21988;-65
2021/06/20 08:45:17;;;;;;;6.33;4.10;;;26.90;71.80;;;27.22;69.39;97716.84;5046747;28;20645;-65
2021/06/20 08:47:46;;;;;;;7.60;4.40;;;26.90;71.30;;;27.29;69.51;97714.09;5049697;28;20629;-65
2021/06/20 08:50:15;;;;;;;11.90;4.47;;;27.00;72.00;;;27.38;70.33;97719.00;5063174;28;20715;-65
2021/06/20 08:52:44;;;;;;;7.70;3.93;;;27.00;72.50;;;27.49;70.79;97717.47;5046910;28;20676;-65
2021/06/20 08:55:14;;;;;;;7.30;3.87;;;27.10;73.50;;;27.57;68.92;97718.03;5049172;28;20665;-65
2021/06/20 08:57:46;;;;;;;8.40;4.17;;;27.20;71.50;;;27.70;69.75;97718.72;5050795;28;20628;-65
2021/06/20 09:00:19;;;;;;;12.60;4.40;;;27.20;72.50;;;27.86;71.10;97717.34;5052398;28;20613;-65
2021/06/20 09:02:58;;;;;;;5.00;3.90;;;27.40;73.90;;;27.91;68.33;97709.47;5054332;28;20631;-65
2021/06/20 09:05:28;;;;;;;10.53;4.73;;;27.50;70.30;;;27.95;68.49;97716.00;5046927;28;20687;-65
2021/06/20 09:07:56;;;;;;;5.63;4.43;;;27.50;70.80;;;28.00;67.54;97712.44;5050443;28;20639;-65
2021/06/20 09:10:29;;;;;;;8.07;4.13;;;27.60;70.00;;;28.00;68.79;97708.94;5051816;28;20653;-65
2021/06/20 09:12:59;;;;;;;6.63;3.87;;;27.60;70.90;;;28.00;67.36;97710.81;5051528;28;20636;-65
2021/06/20 09:15:33;;;;;;;5.80;4.13;;;27.60;69.20;;;28.01;67.07;97724.03;5050430;28;20627;-65
2021/06/20 09:18:05;;;;;;;6.20;4.23;;;27.60;69.60;;;27.95;66.55;97710.66;5046296;28;20643;-65
2021/06/20 09:20:37;;;;;;;11.33;4.30;;;27.60;67.60;;;27.98;68.01;97711.03;5049760;28;20720;-65
2021/06/20 09:23:09;;;;;;;14.50;5.30;;;27.60;69.80;;;28.02;67.77;97707.69;5050273;28;21046;-65
2021/06/20 09:25:41;;;;;;;10.50;4.10;;;27.60;69.30;;;28.09;68.67;97710.34;5050716;28;20617;-65
2021/06/20 09:28:12;;;;;;;7.40;4.20;;;27.70;70.50;;;28.10;66.97;97717.31;5046078;28;20634;-65
2021/06/20 09:30:48;;;;;;;5.60;4.23;;;27.70;68.00;;;28.12;69.30;97709.88;5047344;28;20644;-68
2021/06/20 09:33:19;;;;;;;9.60;4.83;;;27.70;71.70;;;28.17;69.40;97713.53;5050589;28;21183;-67
2021/06/20 09:35:52;;;;;;;8.17;4.30;;;27.80;72.30;;;28.23;69.02;97703.78;5047633;28;20662;-67
2021/06/20 09:38:24;;;;;;;10.03;4.97;;;27.80;71.20;;;28.30;68.77;97705.34;5045475;28;20637;-65
2021/06/20 09:40:54;;;;;;;8.90;4.43;;;28.00;72.00;;;28.37;69.98;97703.41;5044527;28;21188;-65
2021/06/20 09:43:23;;;;;;;7.90;4.65;;;28.00;72.50;;;28.42;68.97;97702.72;5048356;28;20761;-64
2021/06/20 09:45:53;;;;;;;6.77;4.63;;;28.00;70.60;;;28.46;66.83;97703.91;5049373;28;20202;-65
2021/06/20 09:48:27;;;;;;;10.37;4.70;;;28.10;68.70;;;28.42;67.21;97703.53;5063096;28;20630;-66
2021/06/20 09:50:57;;;;;;;9.93;6.20;;;28.00;68.20;;;28.50;67.85;97711.28;5047326;28;20648;-66
2021/06/20 09:53:38;;;;;;;8.57;6.57;;;28.10;70.20;;;28.60;69.06;97711.59;5059964;28;20688;-66
2021/06/20 09:56:13;;;;;;;11.57;5.67;;;28.20;72.00;;;28.66;69.34;97706.16;5042416;28;20644;-67
2021/06/20 09:58:45;;;;;;;6.00;4.53;;;28.30;72.80;;;28.66;68.42;97710.69;5045779;28;20631;-67
2021/06/20 10:01:18;;;;;;;6.87;5.57;;;28.30;71.40;;;28.68;68.69;97706.72;5040484;28;20994;-66
2021/06/20 10:03:49;;;;;;;9.50;5.17;;;28.30;70.60;;;28.82;68.24;97704.69;5040279;28;20771;-66
2021/06/20 10:06:19;;;;;;;10.27;6.37;;;28.40;70.90;;;28.94;67.85;97706.38;5043545;28;20774;-66
2021/06/20 10:08:48;;;;;;;7.00;4.70;;;28.50;70.50;;;28.99;67.11;97704.63;5047788;28;21262;-66
2021/06/20 10:11:18;;;;;;;8.43;6.00;;;28.50;69.30;;;29.07;68.11;97698.94;5045164;28;20692;-66
2021/06/20 10:13:48;;;;;;;8.67;5.23;;;28.70;70.80;;;29.17;67.69;97699.19;5047927;28;20629;-66
2021/06/20 10:16:22;;;;;;;8.70;4.97;;;28.70;70.00;;;29.25;68.31;97701.59;5044114;28;20628;-66
2021/06/20 10:18:57;;;;;;;12.67;8.50;;;28.80;70.10;;;29.33;68.75;97697.75;5035268;28;20794;-66
2021/06/20 10:21:34;;;;;;;9.10;5.73;;;28.90;71.60;;;29.29;68.25;97694.72;5043113;28;20631;-66